Time;durP1;ratioP1;P1;durP2;ratioP2;P2;SDS_P1;SDS_P2;PMS_P1;PMS_P2;Temp;Humidity;BMP_temperature;BMP_pressure;BME280_temperature;BME280_humidity;BME280_pressure;Samples;Min_cycle;Max_cycle;Signal;HPM_P1;HPM_P2
2023/07/23 03:01:55;;;;;;;2.30;2.10;;;25.60;44.00;;;;;;5222278;23;45592;-84
2023/07/23 03:04:26;;;;;;;2.20;2.00;;;25.60;44.00;;;;;;4907689;28;44967;-85
2023/07/23 03:06:52;;;;;;;2.00;1.80;;;25.60;44.00;;;;;;4914212;28;46477;-88
2023/07/23 03:09:18;;;;;;;2.38;2.00;;;25.60;44.20;;;;;;4902790;28;46871;-85
2023/07/23 03:11:44;;;;;;;2.67;2.00;;;25.60;44.00;;;;;;4897311;28;45527;-84
2023/07/23 03:14:09;;;;;;;2.30;2.10;;;25.60;44.00;;;;;;4857943;28;44861;-84
2023/07/23 03:16:35;;;;;;;1.83;1.63;;;25.60;44.00;;;;;;4865669;28;45798;-85
2023/07/23 03:19:00;;;;;;;1.77;1.60;;;25.60;44.00;;;;;;4878429;28;46783;-83
2023/07/23 03:21:26;;;;;;;2.50;2.00;;;25.60;44.00;;;;;;4885054;28;44947;-88
2023/07/23 03:23:51;;;;;;;2.22;1.80;;;25.60;44.00;;;;;;4889696;28;44923;-86
2023/07/23 03:26:17;;;;;;;1.95;1.85;;;25.60;44.00;;;;;;4883878;28;44809;-86
2023/07/23 03:28:42;;;;;;;2.17;1.93;;;25.60;44.00;;;;;;4904061;28;45254;-82
2023/07/23 03:31:08;;;;;;;2.00;1.80;;;25.60;44.00;;;;;;4872133;28;45400;-83
2023/07/23 03:33:33;;;;;;;2.20;1.90;;;25.60;44.00;;;;;;4881538;28;45454;-85
2023/07/23 03:35:59;;;;;;;2.03;1.70;;;25.60;44.00;;;;;;4915791;28;44932;-85
2023/07/23 03:38:24;;;;;;;2.07;1.80;;;25.60;44.00;;;;;;4858496;28;47295;-86
2023/07/23 03:40:50;;;;;;;2.33;1.90;;;25.60;43.90;;;;;;4883472;28;45203;-84
2023/07/23 03:43:15;;;;;;;2.30;2.00;;;25.60;44.00;;;;;;4887172;28;45126;-83
2023/07/23 03:45:41;;;;;;;2.10;1.80;;;25.60;43.90;;;;;;4882044;28;44943;-87
2023/07/23 03:48:07;;;;;;;2.17;1.97;;;25.50;43.90;;;;;;4869335;28;45540;-84
2023/07/23 03:50:33;;;;;;;2.50;1.88;;;25.60;44.00;;;;;;4882106;28;45295;-84
2023/07/23 03:52:58;;;;;;;2.07;1.87;;;25.60;44.00;;;;;;4914535;28;45592;-88
2023/07/23 03:55:24;;;;;;;2.20;2.00;;;25.50;43.90;;;;;;4865778;28;46099;-84
2023/07/23 03:57:49;;;;;;;2.25;1.75;;;25.50;43.90;;;;;;4851782;28;48315;-84
2023/07/23 04:00:15;;;;;;;1.98;1.77;;;25.50;43.90;;;;;;4895810;28;45488;-84
2023/07/23 04:02:41;;;;;;;2.10;1.80;;;25.50;43.90;;;;;;4870721;28;45522;-83
2023/07/23 04:05:07;;;;;;;2.13;1.92;;;25.60;44.00;;;;;;4860102;28;45430;-89
2023/07/23 04:07:33;;;;;;;2.22;1.90;;;25.50;43.90;;;;;;4884891;28;47037;-85
2023/07/23 04:09:59;;;;;;;2.10;1.90;;;25.50;43.90;;;;;;4886048;28;46285;-85
2023/07/23 04:12:25;;;;;;;2.20;1.90;;;25.50;43.90;;;;;;4877256;28;45433;-84
2023/07/23 04:14:50;;;;;;;2.42;1.90;;;25.50;43.90;;;;;;4906190;28;45225;-82
2023/07/23 04:17:16;;;;;;;3.05;1.90;;;25.50;43.90;;;;;;4886590;28;46077;-83
2023/07/23 04:19:41;;;;;;;1.98;1.77;;;25.50;43.90;;;;;;4886929;28;45160;-84
2023/07/23 04:22:07;;;;;;;1.97;1.77;;;25.50;43.90;;;;;;4867717;28;45129;-87
2023/07/23 04:24:32;;;;;;;2.83;2.10;;;25.50;43.90;;;;;;4901216;28;45434;-84
2023/07/23 04:26:58;;;;;;;2.53;2.07;;;25.60;44.00;;;;;;4884895;28;45364;-88
2023/07/23 04:29:23;;;;;;;2.03;1.83;;;25.60;43.90;;;;;;4869056;28;44854;-85
2023/07/23 04:31:49;;;;;;;2.30;1.90;;;25.60;43.90;;;;;;4873043;28;45013;-86
2023/07/23 04:34:14;;;;;;;2.10;1.90;;;25.50;43.80;;;;;;4882854;28;45652;-85
2023/07/23 04:36:40;;;;;;;1.85;1.70;;;25.50;43.90;;;;;;4880309;28;45729;-85
2023/07/23 04:39:05;;;;;;;2.05;1.85;;;25.50;43.80;;;;;;4853482;28;44982;-84
2023/07/23 04:41:31;;;;;;;2.17;1.97;;;25.60;43.90;;;;;;4868091;28;45292;-85
2023/07/23 04:43:57;;;;;;;2.63;1.90;;;25.60;43.90;;;;;;4868651;28;44977;-83
2023/07/23 04:46:23;;;;;;;2.25;2.03;;;25.50;43.90;;;;;;4877274;28;47246;-84
2023/07/23 04:48:48;;;;;;;2.17;1.90;;;25.50;43.90;;;;;;4882997;28;44773;-82
2023/07/23 04:51:14;;;;;;;2.28;1.90;;;25.50;43.90;;;;;;4861258;28;45482;-87
2023/07/23 04:53:39;;;;;;;2.10;1.90;;;25.50;43.90;;;;;;4884189;28;44899;-84
2023/07/23 04:56:05;;;;;;;2.75;1.92;;;25.50;43.90;;;;;;4886205;28;46585;-84
2023/07/23 04:58:31;;;;;;;2.30;2.00;;;25.50;43.90;;;;;;4884869;28;44912;-84
2023/07/23 05:00:58;;;;;;;2.42;1.88;;;25.50;43.90;;;;;;4879169;28;45393;-86
2023/07/23 05:03:24;;;;;;;2.35;1.90;;;25.50;43.90;;;;;;4849100;28;45892;-82
2023/07/23 05:05:50;;;;;;;2.10;1.80;;;25.50;43.90;;;;;;4879038;28;45375;-85
2023/07/23 05:08:19;;;;;;;2.10;1.90;;;25.50;43.90;;;;;;4874027;28;44969;-83
2023/07/23 05:10:45;;;;;;;2.72;1.90;;;25.50;43.90;;;;;;4881734;28;46017;-85
2023/07/23 05:13:11;;;;;;;2.00;1.80;;;25.50;43.90;;;;;;4887112;28;45296;-85
2023/07/23 05:15:37;;;;;;;2.00;1.80;;;25.50;43.90;;;;;;4878173;28;47221;-85
2023/07/23 05:18:03;;;;;;;2.37;2.10;;;25.50;44.00;;;;;;4865916;28;45204;-84
2023/07/23 05:20:28;;;;;;;2.00;1.80;;;25.50;43.90;;;;;;4883943;28;45592;-87
2023/07/23 05:22:55;;;;;;;2.17;1.77;;;25.50;43.90;;;;;;4851910;28;45652;-84
2023/07/23 05:25:20;;;;;;;2.22;1.95;;;25.50;43.90;;;;;;4884575;28;46592;-81
2023/07/23 05:27:46;;;;;;;3.38;1.90;;;25.50;44.00;;;;;;4882289;28;45751;-84
2023/07/23 05:30:11;;;;;;;2.20;1.90;;;25.50;43.90;;;;;;4881253;28;45965;-86
2023/07/23 05:32:37;;;;;;;2.20;2.00;;;25.50;43.90;;;;;;4866663;28;45790;-91
2023/07/23 05:35:04;;;;;;;1.98;1.75;;;25.50;44.50;;;;;;4877278;28;46946;-90
2023/07/23 05:37:32;;;;;;;2.27;2.07;;;25.50;43.90;;;;;;4886843;28;45169;-82
2023/07/23 05:39:58;;;;;;;2.20;1.80;;;25.50;43.90;;;;;;4850986;28;45220;-84
2023/07/23 05:42:23;;;;;;;2.23;2.03;;;25.40;43.90;;;;;;4878476;28;44731;-83
2023/07/23 05:44:49;;;;;;;2.20;1.83;;;25.50;43.90;;;;;;4854190;28;48377;-83
2023/07/23 05:47:15;;;;;;;2.05;1.85;;;25.50;44.60;;;;;;4877759;28;45274;-83
2023/07/23 05:49:40;;;;;;;1.80;1.70;;;25.50;44.00;;;;;;4897744;28;45680;-85
2023/07/23 05:52:06;;;;;;;2.07;1.87;;;25.50;43.90;;;;;;4866167;28;45625;-84
2023/07/23 05:54:32;;;;;;;2.50;1.98;;;25.50;43.90;;;;;;4884914;28;47535;-83
2023/07/23 05:56:58;;;;;;;2.00;1.80;;;25.50;44.50;;;;;;4899452;28;44931;-84
2023/07/23 05:59:24;;;;;;;2.33;1.90;;;25.50;43.90;;;;;;4881078;28;45234;-85
2023/07/23 06:01:49;;;;;;;2.10;1.80;;;25.50;43.90;;;;;;4883956;28;45373;-83
2023/07/23 06:04:15;;;;;;;2.10;1.90;;;25.50;43.90;;;;;;4880611;28;47354;-86
2023/07/23 06:06:41;;;;;;;1.83;1.67;;;25.40;43.90;;;;;;4877798;28;44845;-89
2023/07/23 06:09:06;;;;;;;2.00;1.80;;;25.50;43.90;;;;;;4873041;28;45414;-83
2023/07/23 06:11:32;;;;;;;1.97;1.80;;;25.50;43.90;;;;;;4871589;28;45138;-84
2023/07/23 06:14:00;;;;;;;2.00;1.80;;;25.40;43.90;;;;;;4889964;28;47441;-84
2023/07/23 06:16:26;;;;;;;2.20;2.00;;;25.40;43.80;;;;;;4874662;28;45240;-85
2023/07/23 06:18:52;;;;;;;2.93;1.73;;;25.50;43.90;;;;;;4903495;28;45746;-85
2023/07/23 06:21:17;;;;;;;2.40;1.80;;;25.50;43.90;;;;;;4891820;28;45388;-83
2023/07/23 06:23:43;;;;;;;3.05;2.03;;;25.50;43.90;;;;;;4879301;28;47012;-85
2023/07/23 06:26:08;;;;;;;1.95;1.67;;;25.40;43.80;;;;;;4883072;28;46254;-82
2023/07/23 06:28:34;;;;;;;2.33;1.90;;;25.40;43.80;;;;;;4883742;28;45640;-83
2023/07/23 06:30:59;;;;;;;2.23;2.00;;;25.50;43.90;;;;;;4881145;28;45008;-84
2023/07/23 06:33:25;;;;;;;2.23;2.00;;;25.40;43.80;;;;;;4884761;29;45648;-86
2023/07/23 06:35:50;;;;;;;1.97;1.77;;;25.40;43.80;;;;;;4901436;28;45542;-83
2023/07/23 06:38:16;;;;;;;2.40;1.80;;;25.40;43.80;;;;;;4916592;28;45232;-84
2023/07/23 06:40:50;;;;;;;2.33;2.00;;;25.50;43.90;;;;;;4887171;28;45541;-91
2023/07/23 06:43:16;;;;;;;2.70;2.00;;;25.50;44.00;;;;;;4889221;28;46918;-82
2023/07/23 06:45:45;;;;;;;2.10;1.88;;;25.40;43.90;;;;;;4872625;28;45469;-89
2023/07/23 06:48:11;;;;;;;2.13;1.92;;;25.40;43.90;;;;;;4884808;28;44768;-85
2023/07/23 06:50:37;;;;;;;1.97;1.60;;;25.40;43.90;;;;;;4867988;28;45513;-86
2023/07/23 06:53:02;;;;;;;2.20;1.80;;;25.40;43.90;;;;;;4869496;28;46136;-85
2023/07/23 06:55:28;;;;;;;2.13;1.83;;;25.40;43.90;;;;;;4889964;28;45348;-84
2023/07/23 06:57:54;;;;;;;1.90;1.67;;;25.50;43.90;;;;;;4897837;28;45035;-84
2023/07/23 07:00:19;;;;;;;1.80;1.50;;;25.40;43.90;;;;;;4852643;28;45373;-84
2023/07/23 07:02:45;;;;;;;1.93;1.77;;;25.40;43.90;;;;;;4882107;29;46614;-84
2023/07/23 07:05:10;;;;;;;2.20;1.70;;;25.40;43.90;;;;;;4879594;29;45173;-83
2023/07/23 07:07:37;;;;;;;2.33;1.70;;;25.40;43.90;;;;;;4850925;29;45759;-85
2023/07/23 07:10:07;;;;;;;2.27;1.80;;;25.40;44.50;;;;;;4895030;28;44753;-90
2023/07/23 07:12:33;;;;;;;2.38;1.83;;;25.40;43.80;;;;;;4881375;29;45344;-84
2023/07/23 07:14:58;;;;;;;2.00;1.52;;;25.40;43.90;;;;;;4865880;28;44953;-84
2023/07/23 07:17:24;;;;;;;1.88;1.60;;;25.40;43.90;;;;;;4893333;28;45342;-85
2023/07/23 07:19:50;;;;;;;2.03;1.83;;;25.40;43.90;;;;;;4897026;28;44836;-84
2023/07/23 07:22:16;;;;;;;2.27;1.80;;;25.40;43.90;;;;;;4904677;28;48136;-83
2023/07/23 07:24:41;;;;;;;1.70;1.60;;;25.40;43.90;;;;;;4869240;29;45150;-82
2023/07/23 07:27:10;;;;;;;2.67;1.70;;;25.40;43.90;;;;;;4879870;29;44985;-85
2023/07/23 07:29:39;;;;;;;1.75;1.65;;;25.40;43.90;;;;;;4861033;29;44843;-86
2023/07/23 07:32:06;;;;;;;1.60;1.47;;;25.40;43.90;;;;;;4875459;28;46173;-83
2023/07/23 07:34:32;;;;;;;1.70;1.60;;;25.40;43.90;;;;;;4871223;29;45422;-83
2023/07/23 07:36:58;;;;;;;2.10;1.80;;;25.40;43.90;;;;;;4882968;28;45157;-82
2023/07/23 07:39:23;;;;;;;1.73;1.63;;;25.40;43.90;;;;;;4895304;28;44882;-83
2023/07/23 07:41:49;;;;;;;1.70;1.55;;;25.40;43.90;;;;;;4884642;28;47017;-83
2023/07/23 07:44:14;;;;;;;3.97;1.80;;;25.40;44.50;;;;;;4898432;28;44615;-85
2023/07/23 07:46:40;;;;;;;2.00;1.80;;;25.40;43.90;;;;;;4898406;28;45318;-82
2023/07/23 07:49:05;;;;;;;1.80;1.70;;;25.40;43.90;;;;;;4884585;28;45047;-87
2023/07/23 07:51:31;;;;;;;2.30;1.70;;;25.40;43.90;;;;;;4871024;29;46722;-83
2023/07/23 07:53:57;;;;;;;1.53;1.43;;;25.40;43.90;;;;;;4883074;28;45624;-82
2023/07/23 07:56:22;;;;;;;2.10;1.83;;;25.40;43.90;;;;;;4867296;28;45226;-83
2023/07/23 07:58:48;;;;;;;2.07;1.83;;;25.40;43.90;;;;;;4884045;28;45022;-84
2023/07/23 08:01:14;;;;;;;1.47;1.37;;;25.40;44.50;;;;;;4899226;28;46088;-84
2023/07/23 08:03:40;;;;;;;1.90;1.70;;;25.40;43.90;;;;;;4900478;28;45019;-82
2023/07/23 08:06:05;;;;;;;2.35;1.58;;;25.40;43.90;;;;;;4887267;28;45111;-83
2023/07/23 08:08:33;;;;;;;2.75;1.80;;;25.40;43.90;;;;;;4888898;28;45281;-83
2023/07/23 08:11:00;;;;;;;1.70;1.60;;;25.40;43.90;;;;;;4899392;28;46765;-82
2023/07/23 08:13:28;;;;;;;2.07;1.67;;;25.40;43.90;;;;;;4900444;28;64746;-83
2023/07/23 08:15:54;;;;;;;1.93;1.73;;;25.40;43.90;;;;;;4864791;28;45173;-82
2023/07/23 08:18:20;;;;;;;1.70;1.60;;;25.40;43.90;;;;;;4884910;29;45423;-81
2023/07/23 08:20:46;;;;;;;1.60;1.50;;;25.40;43.90;;;;;;4868422;28;46986;-83
2023/07/23 08:23:12;;;;;;;1.58;1.48;;;25.40;43.90;;;;;;4883186;29;46106;-83
2023/07/23 08:25:37;;;;;;;2.20;1.50;;;25.40;43.90;;;;;;4897069;29;45396;-83
2023/07/23 08:28:03;;;;;;;2.05;1.70;;;25.40;43.90;;;;;;4884185;29;45294;-86
2023/07/23 08:30:30;;;;;;;1.70;1.60;;;25.40;44.50;;;;;;4895551;28;45373;-85
2023/07/23 08:32:56;;;;;;;1.60;1.40;;;25.40;43.90;;;;;;4896397;28;45113;-81
2023/07/23 08:35:23;;;;;;;1.50;1.40;;;25.40;43.90;;;;;;4862115;29;45386;-80
2023/07/23 08:37:49;;;;;;;1.70;1.60;;;25.40;43.90;;;;;;4878280;28;46305;-81
2023/07/23 08:40:15;;;;;;;1.70;1.60;;;25.40;43.90;;;;;;4894122;28;46132;-82
2023/07/23 08:42:53;;;;;;;2.20;1.58;;;25.40;43.90;;;;;;4898604;28;45132;-82
2023/07/23 08:46:16;;;;;;;1.80;1.70;;;25.40;43.90;;;;;;4895251;28;45545;-81
2023/07/23 08:49:06;;;;;;;1.63;1.50;;;25.40;43.90;;;;;;4815730;29;45197;-81
2023/07/23 08:51:41;;;;;;;1.63;1.52;;;25.40;43.90;;;;;;4803070;29;47253;-81
2023/07/23 08:54:08;;;;;;;1.90;1.70;;;25.40;43.90;;;;;;4866360;28;45603;-82
2023/07/23 08:56:34;;;;;;;1.60;1.50;;;25.40;43.90;;;;;;4895878;28;45213;-82
2023/07/23 08:59:03;;;;;;;2.30;1.52;;;25.40;43.90;;;;;;4875535;28;45346;-81
2023/07/23 09:01:37;;;;;;;2.17;1.67;;;25.40;43.90;;;;;;4906668;28;45529;-83
2023/07/23 09:04:07;;;;;;;1.87;1.63;;;25.40;43.90;;;;;;4880506;28;45308;-83
2023/07/23 09:06:33;;;;;;;1.70;1.60;;;25.40;43.90;;;;;;4898623;28;45142;-84
2023/07/23 09:09:06;;;;;;;1.50;1.40;;;25.40;44.40;;;;;;4864790;28;45336;-83
2023/07/23 09:11:31;;;;;;;2.33;1.60;;;25.40;43.90;;;;;;4878318;28;46086;-82
2023/07/23 09:13:59;;;;;;;1.70;1.50;;;25.40;43.90;;;;;;4865196;28;45031;-84
2023/07/23 09:16:25;;;;;;;2.10;1.58;;;25.40;43.90;;;;;;4844718;29;45596;-83
2023/07/23 09:18:50;;;;;;;1.67;1.58;;;25.40;43.90;;;;;;4861324;29;45392;-83
2023/07/23 09:21:23;;;;;;;2.10;1.70;;;25.40;43.90;;;;;;4876514;28;45528;-82
2023/07/23 09:23:57;;;;;;;2.10;1.75;;;25.40;43.90;;;;;;4852402;28;44933;-82
2023/07/23 09:26:24;;;;;;;3.13;2.00;;;25.40;43.90;;;;;;4860243;29;45467;-83
2023/07/23 09:28:51;;;;;;;3.78;2.10;;;25.40;43.90;;;;;;4867146;28;45814;-82
2023/07/23 09:31:26;;;;;;;2.90;2.17;;;25.50;43.90;;;;;;4877497;28;45460;-81
2023/07/23 09:33:56;;;;;;;3.08;2.00;;;25.40;43.90;;;;;;4886210;28;44816;-81
2023/07/23 09:36:22;;;;;;;5.25;2.50;;;25.40;43.90;;;;;;4880758;28;45452;-83
2023/07/23 09:39:00;;;;;;;5.60;2.70;;;25.40;43.90;;;;;;4901766;28;44838;-86
2023/07/23 09:41:43;;;;;;;9.80;3.85;;;25.40;43.90;;;;;;4876073;29;45434;-82
2023/07/23 09:44:15;;;;;;;5.28;2.60;;;25.40;43.90;;;;;;4883665;28;45601;-81
2023/07/23 09:46:44;;;;;;;5.30;2.93;;;25.40;43.90;;;;;;4869070;29;45056;-82
2023/07/23 09:49:11;;;;;;;6.15;3.10;;;25.50;44.00;;;;;;4890602;28;45879;-83
2023/07/23 09:51:37;;;;;;;6.25;3.20;;;25.40;43.90;;;;;;4892326;28;47139;-82
2023/07/23 09:54:03;;;;;;;5.80;3.13;;;25.40;43.90;;;;;;4864899;28;45579;-83
2023/07/23 09:56:29;;;;;;;8.35;3.17;;;25.50;44.00;;;;;;4883922;28;45233;-82
2023/07/23 09:58:54;;;;;;;4.38;2.75;;;25.40;43.90;;;;;;4881529;28;45769;-82
2023/07/23 10:01:20;;;;;;;5.45;2.78;;;25.40;43.90;;;;;;4891055;28;45261;-80
2023/07/23 10:03:49;;;;;;;5.65;2.88;;;25.50;44.00;;;;;;4880877;29;45528;-82
2023/07/23 10:06:15;;;;;;;4.40;2.58;;;25.50;43.90;;;;;;4875853;28;47046;-84
2023/07/23 10:08:42;;;;;;;4.13;2.58;;;25.50;44.00;;;;;;4882341;29;44940;-82
2023/07/23 10:11:09;;;;;;;4.78;2.50;;;25.50;43.90;;;;;;4878845;29;47503;-82
2023/07/23 10:13:36;;;;;;;4.50;2.40;;;25.50;43.90;;;;;;4871888;28;45248;-81
2023/07/23 10:16:03;;;;;;;4.40;2.53;;;25.40;43.80;;;;;;4874964;28;45557;-84
2023/07/23 10:18:28;;;;;;;4.80;2.50;;;25.50;43.80;;;;;;4880549;29;44843;-81
2023/07/23 10:20:54;;;;;;;4.18;2.40;;;25.50;43.70;;;;;;4860646;29;47016;-82
2023/07/23 10:23:21;;;;;;;5.15;2.65;;;25.50;43.70;;;;;;4880689;28;45635;-82
2023/07/23 10:25:46;;;;;;;4.95;2.30;;;25.50;43.80;;;;;;4880893;29;45247;-83
2023/07/23 10:28:21;;;;;;;3.13;2.20;;;25.50;43.70;;;;;;4881416;28;46163;-83
2023/07/23 10:30:47;;;;;;;4.22;2.70;;;25.50;43.70;;;;;;4861651;29;48253;-82
2023/07/23 10:33:12;;;;;;;4.15;2.45;;;25.50;43.70;;;;;;4862785;28;44754;-88
2023/07/23 10:35:54;;;;;;;4.22;2.63;;;25.50;43.70;;;;;;4894041;28;45164;-81
2023/07/23 10:38:23;;;;;;;4.88;2.75;;;25.50;43.60;;;;;;4899637;28;45459;-82
2023/07/23 10:40:49;;;;;;;4.10;2.25;;;25.50;43.60;;;;;;4895424;28;47008;-82
2023/07/23 10:43:15;;;;;;;4.80;2.65;;;25.50;43.60;;;;;;4881132;28;45468;-85
2023/07/23 10:45:49;;;;;;;3.33;2.40;;;25.50;43.70;;;;;;4879582;28;45998;-86
2023/07/23 10:48:18;;;;;;;4.35;2.40;;;25.50;43.70;;;;;;4895475;28;45183;-83
2023/07/23 10:51:02;;;;;;;3.92;2.20;;;25.50;43.70;;;;;;4869497;29;47130;-82
2023/07/23 10:53:30;;;;;;;4.00;2.37;;;25.50;43.70;;;;;;4882579;28;44969;-83
2023/07/23 10:55:58;;;;;;;2.80;2.05;;;25.60;43.80;;;;;;4876506;29;44939;-81
2023/07/23 10:58:24;;;;;;;4.13;2.15;;;25.50;43.70;;;;;;4882359;28;44690;-82
2023/07/23 11:00:54;;;;;;;3.13;2.10;;;25.50;43.70;;;;;;4875938;28;45781;-82
2023/07/23 11:03:21;;;;;;;3.72;2.10;;;25.50;43.70;;;;;;4884100;28;45960;-81
2023/07/23 11:05:47;;;;;;;4.32;2.40;;;25.60;43.80;;;;;;4884865;28;45283;-81
2023/07/23 11:08:23;;;;;;;3.13;2.20;;;25.60;43.80;;;;;;4887882;28;45066;-81
2023/07/23 11:11:00;;;;;;;3.92;2.20;;;25.60;43.80;;;;;;4900212;28;46378;-82
2023/07/23 11:13:30;;;;;;;3.38;2.10;;;25.60;43.80;;;;;;4871827;28;45285;-83
2023/07/23 11:15:56;;;;;;;2.70;1.92;;;25.60;43.80;;;;;;4877689;28;45648;-83
2023/07/23 11:18:22;;;;;;;2.85;2.13;;;25.60;43.80;;;;;;4899340;28;45110;-81
2023/07/23 11:20:49;;;;;;;2.75;2.00;;;25.60;43.80;;;;;;4885216;28;45495;-82
2023/07/23 11:23:16;;;;;;;3.63;2.20;;;25.60;43.80;;;;;;4887289;28;45610;-82
2023/07/23 11:25:45;;;;;;;3.83;2.00;;;25.60;43.80;;;;;;4887858;28;45495;-82
2023/07/23 11:28:10;;;;;;;2.80;1.95;;;25.60;43.80;;;;;;4903995;28;45319;-83
2023/07/23 11:30:36;;;;;;;2.60;1.80;;;25.60;43.80;;;;;;4914579;28;46930;-83
2023/07/23 11:33:02;;;;;;;2.63;2.03;;;25.60;43.80;;;;;;4887325;28;45316;-81
2023/07/23 11:35:28;;;;;;;3.28;2.17;;;25.60;43.80;;;;;;4883482;28;45305;-85
2023/07/23 11:37:53;;;;;;;2.20;1.77;;;25.60;43.80;;;;;;4902173;28;45190;-81
2023/07/23 11:40:23;;;;;;;3.10;1.93;;;25.60;43.70;;;;;;4882199;28;46357;-85
2023/07/23 11:42:49;;;;;;;3.63;2.08;;;25.60;43.70;;;;;;4869998;28;45656;-82
2023/07/23 11:45:14;;;;;;;3.03;2.03;;;25.60;43.70;;;;;;4884305;28;44809;-81
2023/07/23 11:47:51;;;;;;;2.33;1.85;;;25.60;43.80;;;;;;4883335;28;45489;-81
2023/07/23 11:50:17;;;;;;;2.87;1.90;;;25.60;43.80;;;;;;4910395;28;45504;-83
2023/07/23 11:52:42;;;;;;;2.83;2.00;;;25.60;43.80;;;;;;4867983;28;45459;-82
2023/07/23 11:55:37;;;;;;;3.05;1.85;;;25.60;43.80;;;;;;4882236;28;46207;-82
2023/07/23 11:58:03;;;;;;;3.30;2.00;;;25.60;43.70;;;;;;4872815;28;45023;-83
2023/07/23 12:00:37;;;;;;;2.50;2.10;;;25.60;43.80;;;;;;4893061;28;47491;-83
2023/07/23 12:03:06;;;;;;;3.28;2.00;;;25.60;43.70;;;;;;4864798;29;45219;-81
2023/07/23 12:05:32;;;;;;;2.95;1.90;;;25.60;43.80;;;;;;4876098;29;45634;-83
2023/07/23 12:07:57;;;;;;;2.03;1.83;;;25.70;43.90;;;;;;4870504;29;45390;-82
2023/07/23 12:10:25;;;;;;;2.50;2.00;;;25.60;43.80;;;;;;4876727;28;45665;-80
2023/07/23 12:12:51;;;;;;;3.53;1.77;;;25.60;43.80;;;;;;4875915;28;45044;-81
2023/07/23 12:15:17;;;;;;;2.42;1.75;;;25.70;43.80;;;;;;4861330;29;45582;-82
2023/07/23 12:17:43;;;;;;;2.50;1.80;;;25.60;43.80;;;;;;4875991;29;46597;-82
2023/07/23 12:20:10;;;;;;;1.90;1.70;;;25.60;43.80;;;;;;4877787;29;47138;-86
2023/07/23 12:22:54;;;;;;;3.55;1.80;;;25.60;43.70;;;;;;4863697;29;45441;-81
2023/07/23 12:25:20;;;;;;;2.30;1.88;;;25.60;43.70;;;;;;4892204;28;45020;-82
2023/07/23 12:27:46;;;;;;;2.17;1.80;;;25.60;43.70;;;;;;4892680;28;45442;-82
2023/07/23 12:30:15;;;;;;;2.33;1.73;;;25.60;43.70;;;;;;4874793;28;45248;-83
2023/07/23 12:32:40;;;;;;;3.10;1.85;;;25.60;43.80;;;;;;4878239;29;45021;-81
2023/07/23 12:35:09;;;;;;;2.17;1.73;;;25.70;43.80;;;;;;4877441;28;45238;-86
2023/07/23 12:37:35;;;;;;;2.00;1.80;;;25.70;43.80;;;;;;4877460;29;45323;-81
2023/07/23 12:40:04;;;;;;;2.45;1.85;;;25.70;43.80;;;;;;4879662;28;47050;-83
2023/07/23 12:42:33;;;;;;;2.42;1.63;;;25.60;43.80;;;;;;4893775;28;45221;-87
2023/07/23 12:44:59;;;;;;;2.00;1.60;;;25.70;43.80;;;;;;4896096;28;45575;-82
2023/07/23 12:47:26;;;;;;;2.28;1.80;;;25.60;43.80;;;;;;4875512;28;44807;-81
2023/07/23 12:49:51;;;;;;;2.63;1.77;;;25.60;43.80;;;;;;4879668;28;45333;-81
2023/07/23 12:52:19;;;;;;;4.15;1.85;;;25.70;43.80;;;;;;4872765;28;45939;-84
2023/07/23 12:54:48;;;;;;;2.67;1.95;;;25.70;43.80;;;;;;4885530;28;45491;-82
2023/07/23 12:57:14;;;;;;;2.00;1.60;;;25.70;43.80;;;;;;4894146;28;44713;-81
2023/07/23 12:59:39;;;;;;;3.58;1.80;;;25.70;43.80;;;;;;4895992;28;47388;-82
2023/07/23 13:02:08;;;;;;;1.90;1.70;;;25.70;43.50;;;;;;4874511;28;45322;-83
2023/07/23 13:04:33;;;;;;;2.90;1.77;;;25.70;43.50;;;;;;4880692;29;45428;-82
2023/07/23 13:06:59;;;;;;;2.15;1.80;;;25.70;43.50;;;;;;4879030;29;45670;-83
2023/07/23 13:09:24;;;;;;;2.83;1.93;;;25.70;43.50;;;;;;4897611;28;45651;-84
2023/07/23 13:11:50;;;;;;;2.43;1.80;;;25.70;43.50;;;;;;4846362;28;45249;-81
2023/07/23 13:14:16;;;;;;;2.03;1.60;;;25.70;43.60;;;;;;4866041;28;45542;-81
2023/07/23 13:16:41;;;;;;;2.50;1.90;;;25.70;43.60;;;;;;4862653;29;45195;-83
2023/07/23 13:19:07;;;;;;;3.30;1.90;;;25.70;43.60;;;;;;4870638;28;46872;-83
2023/07/23 13:21:32;;;;;;;1.70;1.60;;;25.70;43.60;;;;;;4861304;28;45324;-83
2023/07/23 13:23:58;;;;;;;2.67;2.00;;;25.70;43.60;;;;;;4869857;28;45181;-84
2023/07/23 13:26:23;;;;;;;2.00;1.80;;;25.70;43.60;;;;;;4846817;28;45306;-82
2023/07/23 13:28:49;;;;;;;2.80;1.42;;;25.70;43.60;;;;;;4870357;29;48095;-85
2023/07/23 13:31:18;;;;;;;1.80;1.67;;;25.80;43.70;;;;;;4888159;28;44762;-82
2023/07/23 13:33:43;;;;;;;1.90;1.67;;;25.70;43.70;;;;;;4870583;28;44923;-82
2023/07/23 13:36:09;;;;;;;1.50;1.35;;;25.70;43.60;;;;;;4850843;28;45138;-86
2023/07/23 13:38:34;;;;;;;2.50;1.70;;;25.70;43.60;;;;;;4864287;28;47100;-83
2023/07/23 13:41:00;;;;;;;1.80;1.60;;;25.70;43.60;;;;;;4868880;28;45223;-82
2023/07/23 13:43:27;;;;;;;2.90;1.80;;;25.80;43.70;;;;;;4878805;28;45692;-83
2023/07/23 13:45:52;;;;;;;2.40;1.90;;;25.80;43.70;;;;;;4872597;28;45387;-82
2023/07/23 13:48:18;;;;;;;2.20;1.73;;;25.70;44.30;;;;;;4879203;28;46479;-81
2023/07/23 13:50:43;;;;;;;2.80;1.67;;;25.70;43.60;;;;;;4867057;29;44726;-82
2023/07/23 13:53:09;;;;;;;1.70;1.60;;;25.80;43.70;;;;;;4870464;28;45070;-84
2023/07/23 13:55:35;;;;;;;2.10;1.55;;;25.80;43.70;;;;;;4884034;28;44786;-82
2023/07/23 13:58:01;;;;;;;1.90;1.60;;;25.80;43.70;;;;;;4896247;28;45285;-82
2023/07/23 14:00:27;;;;;;;2.07;1.70;;;25.80;43.70;;;;;;4858635;28;45316;-83
2023/07/23 14:02:54;;;;;;;1.98;1.70;;;25.80;43.70;;;;;;4877396;28;45603;-83
2023/07/23 14:05:25;;;;;;;2.40;1.70;;;25.80;43.70;;;;;;4877596;28;44711;-85
2023/07/23 14:07:50;;;;;;;1.98;1.63;;;25.70;43.70;;;;;;4866483;28;46586;-84
2023/07/23 14:10:16;;;;;;;2.03;1.60;;;25.80;43.70;;;;;;4878821;28;45225;-82
2023/07/23 14:12:42;;;;;;;1.90;1.70;;;25.80;43.70;;;;;;4896253;28;45669;-84
2023/07/23 14:15:08;;;;;;;4.83;1.60;;;25.80;43.70;;;;;;4879107;28;45392;-86
2023/07/23 14:17:33;;;;;;;1.73;1.43;;;25.70;43.60;;;;;;4876090;28;46428;-83
2023/07/23 14:19:59;;;;;;;2.00;1.60;;;25.80;43.70;;;;;;4899422;28;45359;-82
2023/07/23 14:22:24;;;;;;;1.60;1.50;;;25.80;43.70;;;;;;4873148;28;45114;-84
2023/07/23 14:24:50;;;;;;;1.60;1.40;;;25.80;43.70;;;;;;4878365;28;44888;-83
2023/07/23 14:27:18;;;;;;;1.98;1.60;;;25.80;43.60;;;;;;4875277;29;47314;-85
2023/07/23 14:29:43;;;;;;;1.70;1.60;;;25.80;43.60;;;;;;4870662;28;45362;-82
2023/07/23 14:32:09;;;;;;;2.03;1.70;;;25.80;43.60;;;;;;4872187;29;44788;-86
2023/07/23 14:34:37;;;;;;;2.07;1.77;;;25.80;43.60;;;;;;4874799;28;45742;-83
2023/07/23 14:37:04;;;;;;;2.23;1.70;;;25.80;43.70;;;;;;4903132;28;46940;-85
2023/07/23 14:39:29;;;;;;;2.47;1.45;;;25.80;43.60;;;;;;4887413;28;45281;-81
2023/07/23 14:41:55;;;;;;;1.63;1.50;;;25.80;43.60;;;;;;4866221;28;45309;-81
2023/07/23 14:44:21;;;;;;;2.00;1.20;;;25.80;43.60;;;;;;4881969;28;45432;-81
2023/07/23 14:46:47;;;;;;;1.60;1.47;;;25.80;43.60;;;;;;4876761;28;45900;-81
2023/07/23 14:49:12;;;;;;;1.58;1.42;;;25.90;43.70;;;;;;4849585;28;45442;-83
2023/07/23 14:51:38;;;;;;;2.13;1.37;;;25.80;43.70;;;;;;4880709;28;45339;-82
2023/07/23 14:54:04;;;;;;;1.63;1.40;;;25.80;43.60;;;;;;4881731;28;46506;-85
2023/07/23 14:56:29;;;;;;;1.40;1.30;;;25.80;43.70;;;;;;4897164;28;47460;-83
2023/07/23 14:58:55;;;;;;;1.77;1.63;;;25.80;43.60;;;;;;4868623;29;44940;-85
2023/07/23 15:01:20;;;;;;;1.50;1.30;;;25.80;43.70;;;;;;4908843;28;45057;-81
2023/07/23 15:03:46;;;;;;;1.77;1.53;;;25.80;43.60;;;;;;4882457;29;45264;-81
2023/07/23 15:06:11;;;;;;;1.87;1.60;;;25.80;43.70;;;;;;4897285;28;45268;-81
2023/07/23 15:08:38;;;;;;;1.57;1.47;;;25.80;43.60;;;;;;4868476;28;45684;-84
2023/07/23 15:11:03;;;;;;;1.80;1.50;;;25.80;43.70;;;;;;4867713;29;45240;-81
2023/07/23 15:13:29;;;;;;;1.85;1.50;;;25.90;43.80;;;;;;4904456;28;45378;-82
2023/07/23 15:15:55;;;;;;;1.50;1.40;;;25.80;43.70;;;;;;4878285;28;46473;-82
2023/07/23 15:18:21;;;;;;;2.08;1.60;;;25.80;43.70;;;;;;4893689;28;45286;-82
2023/07/23 15:20:46;;;;;;;2.10;1.50;;;25.80;43.70;;;;;;4894641;28;45306;-85
2023/07/23 15:23:12;;;;;;;1.77;1.50;;;25.80;43.70;;;;;;4881544;29;45650;-82
2023/07/23 15:25:38;;;;;;;1.53;1.40;;;25.80;43.70;;;;;;4879088;28;47163;-81
2023/07/23 15:28:04;;;;;;;1.73;1.30;;;25.80;43.70;;;;;;4883075;28;45020;-81
2023/07/23 15:30:30;;;;;;;1.50;1.40;;;25.80;43.70;;;;;;4893386;28;45520;-83
2023/07/23 15:32:56;;;;;;;1.30;1.20;;;25.80;43.70;;;;;;4864875;28;46111;-81
2023/07/23 15:35:21;;;;;;;1.75;1.52;;;25.90;43.80;;;;;;4867829;28;45395;-85
2023/07/23 15:37:47;;;;;;;1.50;1.30;;;25.80;43.70;;;;;;4880496;29;45196;-82
2023/07/23 15:40:16;;;;;;;1.57;1.40;;;25.80;43.70;;;;;;4882389;28;45351;-90
2023/07/23 15:42:41;;;;;;;1.60;1.20;;;25.80;43.70;;;;;;4867307;28;44887;-84
2023/07/23 15:45:07;;;;;;;1.70;1.20;;;25.80;43.70;;;;;;4862332;28;47247;-89
2023/07/23 15:47:33;;;;;;;1.07;1.03;;;25.80;43.70;;;;;;4877387;28;45315;-82